Tuesday, July 29, 2014
18:57 UTC
  |  Log In   |  Register Free
Airport Search:

Talladega Municipal Airport
(KASN)

Talladega Municipal Airport Diagram
No Airport Diagram Available

FAA data valid effective July 24, 2014 until September 18, 2014 (unless otherwise noted).

 
 
 
 
 
 
 
 
 
 
 
 
 
 

Current Aviation Weather for Talladega Municipal Airport (KASN)

The most recent METAR observation for KANB was updated at: 1753 UTC
METAR Summary (Translated METAR)
KANB
281753Z AUTO 32013G19KT 10SM CLR 33/17 A2996 RMK AO2 SLP132 T03280172 10328 20250 58006
KGAD
(25.8 nm NW from KANB)
281835Z 33010G15KT 10SM CLR 31/17 A2996 RMK AO1
TAF Summary (Translated TAF)
KANB
291720Z 2918/3018 32011G18KT P6SM BKN050 FM300100 35004KT P6SM SKC
  Airport Weather Conditions for KASN

Current weather conditions are
not available for ASN


The nearest NOAA weather station
is at ANB, (9.7 nm NE from ASN)
  
 Current Weather at ANB
80° F
Partly Cloudy
Northwest winds at 5.8 mph
ANB NOAA Radar

Pressure: 30.03 in
Humidity: 42%
Wind: from the Northwest at 5.8 gusting to 18.4 MPH (5 gusting to 16 KT)
Dew Point: 55.0°F
Visibility: 10.00 mi


Airport Weather Forecast for KASN

Translated METAR and TAF for KANB
Translated METAR for KANB (1851 UTC 29 July 2014)
found at http://aviationweather.gov/adds/metars/
 
METAR text: KANB 291753Z AUTO 30005G16KT 10SM SCT060 27/13 A3003 RMK AO2 SLP161 T02670128 10278 20183 58006
Conditions at: KANB (ANNISTON , AL, US) observed 1753 UTC 29 July 2014
Temperature: 26.7°C (80°F)
Dewpoint: 12.8°C (55°F) [RH = 42%]
Pressure (altimeter): 30.03 inches Hg (1017.0 mb)
[Sea-level pressure: 1016.1 mb]
Winds: from the WNW (300 degrees) at 6 MPH (5 knots; 2.6 m/s)
gusting to 18 MPH (16 knots; 8.3 m/s)
Visibility: 10 or more miles (16+ km)
Ceiling: at least 12,000 feet AGL
Clouds: scattered clouds at 6000 feet AGL
Weather: automated observation with no human augmentation;
there may or may not be significant weather present at this time
Translated TAF for KANB
Forecast for: KANB (ANNISTON , AL, US)
TAF Text: KANB 291720Z 2918/3018 32011G18KT P6SM BKN050
Forecast period: 1800 UTC 29 July 2014 to 0100 UTC 30 July 2014
Forecast type: FROM: standard forecast or significant change
Winds: from the NW (320 degrees) at 13 MPH (11 knots; 5.7 m/s)
gusting to 21 MPH (18 knots; 9.4 m/s)
Visibility: 6 or more miles (10+ km)
Ceiling: 5000 feet AGL
Clouds: broken clouds at 5000 feet AGL
Weather: no significant weather forecast for this period
TAF Text: FM300100 35004KT P6SM SKC
Forecast period: 0100 to 1800 UTC 30 July 2014
Forecast type: FROM: standard forecast or significant change
Winds: from the N (350 degrees) at 5 MPH (4 knots; 2.1 m/s)
Visibility: 6 or more miles (10+ km)
Clouds: clear skies
Weather: no significant weather forecast for this period

Find All Airport Services Find A Hotel Find A Rental Car Find A Golf Course Find A Restaurant $100 Hamburger



FBO's on the Field
FBO Company Facility Photos Services Transportation Aviation Fuel Prices: Prices include tax
Catering Weather Repair Courtesy Rental Type 100LL JetA JetA+ MOGAS 8087
 
Talladega Municipal

This FBO has not yet been rated
FS:Texaco
Last Updated: Jul-09
Login to update fuel prices
SS:
Contact Talladega MunicipalMore FBO Information
 
Add another FBO Facility Photos Catering Weather Repair Courtesy Rental Type 100LL JetA JetA+ MOGAS 8087
Services Transportation Aviation Fuel Prices: Prices include tax


GlobalAir.com Airport Resource Center model-print
model-print
model-print
model-print